createdAt,value
2022-10-07T00:05:37.182Z,0.01
2022-10-07T00:08:11.218Z,0
2022-10-07T04:51:16.338Z,0.01
2022-10-07T04:55:42.514Z,0.02
2022-10-07T04:58:37.675Z,0.03
2022-10-07T05:01:18.458Z,0.05
2022-10-07T05:03:44.855Z,0.08
2022-10-07T05:05:57.307Z,0.11
2022-10-07T05:07:55.466Z,0.16
2022-10-07T05:10:42.443Z,0.27
2022-10-07T05:13:15.281Z,0.39
2022-10-07T05:15:33.868Z,0.56
2022-10-07T05:17:38.208Z,0.83
2022-10-07T05:20:31.574Z,1.29
2022-10-07T05:23:10.690Z,1.77
2022-10-07T05:25:35.457Z,2.52
2022-10-07T05:27:46.344Z,3.27
2022-10-07T05:30:45.820Z,4.51
2022-10-07T05:33:31.045Z,5.78
2022-10-07T05:36:02.054Z,6.59
2022-10-07T05:38:18.970Z,8.21
2022-10-07T05:40:21.586Z,8.91
2022-10-07T05:43:13.039Z,10.26
2022-10-07T05:45:50.278Z,11.93
2022-10-07T05:48:13.085Z,14.3
2022-10-07T05:50:21.933Z,15.21
2022-10-07T05:53:19.744Z,18.08
2022-10-07T05:56:03.257Z,22.35
2022-10-07T05:58:32.429Z,29.72
2022-10-07T06:00:47.349Z,35.16
2022-10-07T06:02:48.408Z,42.62
2022-10-07T06:05:37.915Z,45.82
2022-10-07T06:08:13.276Z,48.24
2022-10-07T06:10:34.580Z,48.54
2022-10-07T06:12:41.583Z,48.06
2022-10-07T06:15:37.420Z,53
2022-10-07T06:18:19.088Z,56.52
2022-10-07T06:20:46.587Z,63.42
2022-10-07T06:22:59.754Z,67.62
2022-10-07T06:24:58.939Z,79.66
2022-10-07T06:27:51.211Z,89.28
2022-10-07T06:30:21.029Z,96.8
2022-10-07T06:32:39.876Z,99.72
2022-10-07T06:34:45.181Z,107.4
2022-10-07T06:37:38.766Z,113.04
2022-10-07T06:40:18.611Z,107.04
2022-10-07T06:42:44.233Z,112.76
2022-10-07T06:44:55.664Z,111.24
2022-10-07T06:47:56.025Z,100.04
2022-10-07T06:50:42.125Z,109.64
2022-10-07T06:53:14.097Z,131.84
2022-10-07T06:55:31.719Z,134
2022-10-07T06:57:45.170Z,156.04
2022-10-07T07:00:27.629Z,171.6
2022-10-07T07:03:05.639Z,178.7
2022-10-07T07:05:29.496Z,166.4
2022-10-07T07:07:39.229Z,164.9
2022-10-07T07:10:37.746Z,158.96
2022-10-07T07:13:21.907Z,170.3
2022-10-07T07:15:52.142Z,163.6
2022-10-07T07:18:08.059Z,183.4
2022-10-07T07:20:09.690Z,187.7
2022-10-07T07:23:00.411Z,307.7
2022-10-07T07:25:36.809Z,262.4
2022-10-07T07:27:58.785Z,229.4
2022-10-07T07:30:06.448Z,229.7
2022-10-07T07:33:03.287Z,234.5
2022-10-07T07:35:45.883Z,246.3
2022-10-07T07:38:14.158Z,249.1
2022-10-07T07:40:28.407Z,258
2022-10-07T07:42:28.353Z,256
2022-10-07T07:45:17.073Z,261.8
2022-10-07T07:47:51.755Z,267.1
2022-10-07T07:50:12.134Z,271.2
2022-10-07T07:52:18.209Z,275.2
2022-10-07T07:55:13.244Z,280.6
2022-10-07T07:57:54.119Z,285.8
2022-10-07T08:00:20.824Z,288
2022-10-07T08:02:33.154Z,289.3
2022-10-07T08:04:31.263Z,291.6
2022-10-07T08:07:18.250Z,302
2022-10-07T08:09:50.976Z,307.9
2022-10-07T08:12:09.623Z,312.8
2022-10-07T08:14:14.012Z,316.1
2022-10-07T08:17:07.136Z,322.5
2022-10-07T08:19:46.155Z,326.8
2022-10-07T08:22:10.464Z,331.8
2022-10-07T08:24:20.883Z,336.1
2022-10-07T08:27:20.320Z,342
2022-10-07T08:30:05.430Z,295.6
2022-10-07T08:32:36.212Z,353.1
2022-10-07T08:34:52.732Z,357.7
2022-10-07T08:36:55.210Z,362.5
2022-10-07T08:39:46.395Z,368.6
2022-10-07T08:42:23.470Z,371.2
2022-10-07T08:44:46.380Z,381.4
2022-10-07T08:46:55.065Z,383.6
2022-10-07T08:49:52.571Z,389.1
2022-10-07T08:52:35.955Z,394.7
2022-10-07T08:55:05.105Z,400.6
2022-10-07T08:57:19.951Z,404.6
2022-10-07T08:59:20.900Z,407.3
2022-10-07T09:02:10.424Z,412.9
2022-10-07T09:04:45.651Z,417.2
2022-10-07T09:07:06.573Z,422.8
2022-10-07T09:09:13.301Z,428.8
2022-10-07T09:12:08.879Z,436.9
2022-10-07T09:14:49.609Z,450
2022-10-07T09:17:16.703Z,462.7
2022-10-07T09:19:29.605Z,475
2022-10-07T09:21:28.396Z,487.6
2022-10-07T09:24:15.978Z,300.1
2022-10-07T09:26:49.293Z,517.7
2022-10-07T09:29:08.344Z,531.5
2022-10-07T09:31:13.545Z,548.6
2022-10-07T09:34:07.142Z,545.2
2022-10-07T09:36:46.551Z,580
2022-10-07T09:39:11.692Z,600
2022-10-07T09:41:22.813Z,601.4
2022-10-07T09:44:22.539Z,592.4
2022-10-07T09:47:08.056Z,610
2022-10-07T09:49:39.457Z,613.9
2022-10-07T09:51:56.674Z,620.3
2022-10-07T09:53:59.730Z,628
2022-10-07T09:56:51.472Z,628.3
2022-10-07T09:59:29.039Z,629.6
2022-10-07T10:01:52.370Z,631.2
2022-10-07T10:04:01.598Z,639
2022-10-07T10:06:59.094Z,647
2022-10-07T10:09:42.752Z,642.4
2022-10-07T10:12:12.159Z,641.1
2022-10-07T10:14:27.568Z,660.1
2022-10-07T10:16:28.921Z,656.3
2022-10-07T10:19:18.532Z,618
2022-10-07T10:21:54.340Z,629.4
2022-10-07T10:24:15.855Z,646.7
2022-10-07T10:26:23.229Z,607.2
2022-10-07T10:29:19.320Z,640.6
2022-10-07T10:32:01.225Z,568.3
2022-10-07T10:34:29.183Z,582
2022-10-07T10:36:42.399Z,438.4
2022-10-07T10:38:41.932Z,600
2022-10-07T10:41:30.219Z,661.7
2022-10-07T10:44:04.187Z,709.7
2022-10-07T10:46:24.176Z,698.5
2022-10-07T10:48:29.955Z,715.8
2022-10-07T10:51:24.438Z,706.2
2022-10-07T10:54:04.843Z,668.1
2022-10-07T10:56:31.044Z,528.3
2022-10-07T10:58:42.592Z,656.9
2022-10-07T11:00:40.509Z,686.4
2022-10-07T11:03:27.112Z,724.1
2022-10-07T11:05:59.521Z,719.3
2022-10-07T11:08:17.678Z,713.6
2022-10-07T11:10:21.726Z,704.9
2022-10-07T11:13:14.408Z,700.1
2022-10-07T11:15:52.980Z,658.8
2022-10-07T11:18:17.570Z,617.4
2022-10-07T11:20:27.745Z,643
2022-10-07T11:23:26.656Z,577.7
2022-10-07T11:26:11.640Z,584.3
2022-10-07T11:28:42.294Z,592.3
2022-10-07T11:30:58.764Z,587
2022-10-07T11:33:01.162Z,582.2
2022-10-07T11:35:52.274Z,594.2
2022-10-07T11:38:29.220Z,522.4
2022-10-07T11:40:52.001Z,518.4
2022-10-07T11:43:00.308Z,478.4
2022-10-07T11:45:57.543Z,497.7
2022-10-07T11:48:40.568Z,427
2022-10-07T11:51:09.234Z,404.4
2022-10-07T11:53:23.948Z,467.5
2022-10-07T11:55:24.404Z,528.1
2022-10-07T11:58:13.685Z,499.3
2022-10-07T12:00:48.838Z,465.1
2022-10-07T12:03:09.729Z,460.3
2022-10-07T12:05:16.554Z,486.5
2022-10-07T12:08:12.052Z,480.3
2022-10-07T12:10:53.337Z,532.4
2022-10-07T12:13:20.390Z,601.1
2022-10-07T12:15:33.479Z,657.2
2022-10-07T12:17:32.225Z,589.9
2022-10-07T12:20:19.668Z,522.4
2022-10-07T12:22:53.216Z,591.3
2022-10-07T12:25:12.237Z,639
2022-10-07T12:27:17.080Z,642.4
2022-10-07T12:30:10.853Z,610.2
2022-10-07T12:32:50.383Z,672.6
2022-10-07T12:35:15.802Z,601.9
2022-10-07T12:37:27.103Z,588.6
2022-10-07T12:40:27.142Z,587.3
2022-10-07T12:43:12.481Z,612.9
2022-10-07T12:45:43.999Z,652.1
2022-10-07T12:48:01.413Z,611.5
2022-10-07T12:50:04.653Z,612.6
2022-10-07T12:52:56.608Z,640
2022-10-07T12:55:34.372Z,615.5
2022-10-07T12:57:57.931Z,587.8
2022-10-07T13:00:07.222Z,560.9
2022-10-07T13:03:05.439Z,555.5
2022-10-07T13:05:49.424Z,565.7
2022-10-07T13:08:19.128Z,544.4
2022-10-07T13:10:34.593Z,549.4
2022-10-07T13:12:36.059Z,398
2022-10-07T13:15:26.205Z,552.9
2022-10-07T13:18:02.144Z,567
2022-10-07T13:20:24.006Z,560.6
2022-10-07T13:22:31.663Z,551.3
2022-10-07T13:25:28.026Z,436.1
2022-10-07T13:28:10.350Z,423.3
2022-10-07T13:30:38.278Z,453.1
2022-10-07T13:32:52.043Z,484.8
2022-10-07T13:34:51.400Z,468.3
2022-10-07T13:37:39.804Z,382.4
2022-10-07T13:39:54.776Z,428.3
2022-10-07T13:41:55.456Z,435.3
2022-10-07T13:44:44.774Z,513.4
2022-10-07T13:47:20.153Z,491
2022-10-07T13:49:41.232Z,497.1
2022-10-07T13:51:49.960Z,506.2
2022-10-07T13:54:43.833Z,474.2
2022-10-07T13:57:25.506Z,588.3
2022-10-07T13:59:52.687Z,502.7
2022-10-07T14:02:05.998Z,496
2022-10-07T14:04:04.994Z,492.3
2022-10-07T14:06:52.644Z,495.6
2022-10-07T14:09:26.085Z,564.3
2022-10-07T14:11:45.493Z,497.9
2022-10-07T14:13:50.669Z,985.6
2022-10-07T14:16:44.501Z,472.1
2022-10-07T14:19:24.246Z,444.6
2022-10-07T14:21:49.781Z,415.8
2022-10-07T14:24:01.089Z,410.7
2022-10-07T14:27:00.896Z,880
2022-10-07T14:29:46.873Z,781.1
2022-10-07T14:32:18.549Z,410.2
2022-10-07T14:34:36.001Z,482.2
2022-10-07T14:36:39.470Z,564.8
2022-10-07T14:39:31.537Z,454.8
2022-10-07T14:42:09.426Z,436.4
2022-10-07T14:44:33.259Z,427.8
2022-10-07T14:46:42.876Z,383.8
2022-10-07T14:49:41.170Z,362.7
2022-10-07T14:52:25.372Z,334.7
2022-10-07T14:54:55.321Z,283.4
2022-10-07T14:57:11.033Z,252
2022-10-07T14:59:12.690Z,236.3
2022-10-07T15:02:03.038Z,208.4
2022-10-07T15:04:39.164Z,211.7
2022-10-07T15:07:00.940Z,212.5
2022-10-07T15:09:08.744Z,199.2
2022-10-07T15:12:05.244Z,203.4
2022-10-07T15:14:47.454Z,223.6
2022-10-07T15:17:15.746Z,211.4
2022-10-07T15:19:29.282Z,202.2
2022-10-07T15:21:29.006Z,193.6
2022-10-07T15:24:17.647Z,221.2
2022-10-07T15:26:52.058Z,191.4
2022-10-07T15:29:12.174Z,163.6
2022-10-07T15:31:18.387Z,140.12
2022-10-07T15:34:13.152Z,115.32
2022-10-07T15:36:53.704Z,118.28
2022-10-07T15:39:20.032Z,113.56
2022-10-07T15:41:32.332Z,117.56
2022-10-07T15:43:30.321Z,111.4
2022-10-07T15:46:17.130Z,105.16
2022-10-07T15:48:49.774Z,94.2
2022-10-07T15:51:08.153Z,101.68
2022-10-07T15:53:12.327Z,116.44
2022-10-07T15:58:44.240Z,109.4
2022-10-07T16:01:08.853Z,101.56
2022-10-07T16:03:19.411Z,87.36
2022-10-07T16:06:18.653Z,82.4
2022-10-07T16:09:03.586Z,71.74
2022-10-07T16:11:33.868Z,55.48
2022-10-07T16:13:50.473Z,49.82
2022-10-07T16:15:52.868Z,46.58
2022-10-07T16:18:43.887Z,43.82
2022-10-07T16:21:20.967Z,35.76
2022-10-07T16:23:43.736Z,30.58
2022-10-07T16:25:52.353Z,28.83
2022-10-07T16:28:49.763Z,25.09
2022-10-07T16:31:32.950Z,23.06
2022-10-07T16:34:01.876Z,20.31
2022-10-07T16:36:16.489Z,18.79
2022-10-07T16:38:17.175Z,17.1
2022-10-07T16:41:06.517Z,14.55
2022-10-07T16:43:41.660Z,12.19
2022-10-07T16:46:02.676Z,9.89
2022-10-07T16:48:09.470Z,8.33
2022-10-07T16:51:04.976Z,6.49
2022-10-07T16:53:46.482Z,5.34
2022-10-07T16:56:13.748Z,4.62
2022-10-07T16:58:26.673Z,3.65
2022-10-07T17:00:25.643Z,2.64
2022-10-07T17:03:12.893Z,1.71
2022-10-07T17:05:46.477Z,1.18
2022-10-07T17:08:05.370Z,0.78
2022-10-07T17:10:10.484Z,0.53
2022-10-07T17:13:04.251Z,0.31
2022-10-07T17:15:43.854Z,0.17
2022-10-07T17:18:09.432Z,0.12
2022-10-07T17:20:20.808Z,0.08
2022-10-07T17:23:21.446Z,0.05
2022-10-07T17:26:06.988Z,0.03
2022-10-07T17:28:38.918Z,0.02
2022-10-07T17:30:56.396Z,0.01
2022-10-07T17:43:03.318Z,0
2022-10-07T17:46:01.597Z,0.01
2022-10-07T17:53:31.547Z,0
2022-10-07T18:05:29.688Z,0.01
2022-10-07T18:13:36.716Z,0
2022-10-07T18:49:33.259Z,0.01
2022-10-07T19:07:54.899Z,0
2022-10-07T19:12:13.792Z,0.01
2022-10-07T19:32:37.735Z,0
2022-10-07T19:34:38.474Z,0.01
2022-10-07T19:50:07.354Z,0
2022-10-07T19:59:34.217Z,0.01
2022-10-07T20:04:26.689Z,0
2022-10-07T20:06:31.808Z,0.01
2022-10-07T20:09:25.531Z,0
2022-10-07T21:09:54.552Z,0.01
2022-10-07T21:12:08.415Z,0
2022-10-07T21:26:51.701Z,0.01
2022-10-07T21:29:33.209Z,0
